createdAt,value
2018-12-25T00:01:40.003Z,4.70
2018-12-25T00:04:10.106Z,4.40
2018-12-25T00:09:17.317Z,5.25
2018-12-25T00:11:47.428Z,6.85
2018-12-25T00:14:17.631Z,5.25
2018-12-25T00:16:47.760Z,4.43
2018-12-25T00:19:17.916Z,5.58
2018-12-25T00:21:49.082Z,4.58
2018-12-25T00:24:19.222Z,7.70
2018-12-25T00:26:49.395Z,5.45
2018-12-25T00:29:20.370Z,4.97
2018-12-25T00:31:50.734Z,5.22
2018-12-25T00:34:20.871Z,6.10
2018-12-25T00:36:51.305Z,4.30
2018-12-25T00:39:23.753Z,4.80
2018-12-25T00:41:54.166Z,4.83
2018-12-25T00:44:24.559Z,4.77
2018-12-25T00:46:54.808Z,5.40
2018-12-25T00:49:24.998Z,4.60
2018-12-25T00:51:55.582Z,5.12
2018-12-25T00:54:25.733Z,5.55
2018-12-25T00:56:55.862Z,5.67
2018-12-25T00:59:26.018Z,5.07
2018-12-25T01:01:56.239Z,4.62
2018-12-25T01:04:29.589Z,5.92
2018-12-25T01:06:59.976Z,4.42
2018-12-25T01:09:30.086Z,6.37
2018-12-25T01:12:00.561Z,4.62
2018-12-25T01:14:31.881Z,6.87
2018-12-25T01:17:02.457Z,5.03
2018-12-25T01:19:32.802Z,4.60
2018-12-25T01:22:03.633Z,4.40
2018-12-25T01:24:33.808Z,7.10
2018-12-25T01:27:04.025Z,7.60
2018-12-25T01:29:34.808Z,5.87
2018-12-25T01:32:04.981Z,4.10
2018-12-25T01:34:35.385Z,3.97
2018-12-25T01:37:06.254Z,5.87
2018-12-25T01:39:36.982Z,4.62
2018-12-25T01:42:07.195Z,5.20
2018-12-25T01:44:37.962Z,4.30
2018-12-25T01:47:08.127Z,5.60
2018-12-25T01:49:38.249Z,5.13
2018-12-25T01:52:08.394Z,4.67
2018-12-25T01:54:38.571Z,5.25
2018-12-25T01:57:08.688Z,7.60
2018-12-25T01:59:38.852Z,5.58
2018-12-25T02:02:10.173Z,5.17
2018-12-25T02:04:40.371Z,8.23
2018-12-25T02:07:10.510Z,5.40
2018-12-25T02:09:41.160Z,4.97
2018-12-25T02:12:11.284Z,5.95
2018-12-25T02:14:41.463Z,6.65
2018-12-25T02:17:11.868Z,5.53
2018-12-25T02:19:41.992Z,7.53
2018-12-25T02:22:12.374Z,4.92
2018-12-25T02:24:42.501Z,7.12
2018-12-25T02:27:12.965Z,4.78
2018-12-25T02:29:43.471Z,7.75
2018-12-25T02:32:13.594Z,6.22
2018-12-25T02:34:43.976Z,5.65
2018-12-25T02:37:14.072Z,5.97
2018-12-25T02:39:44.174Z,6.20
2018-12-25T02:42:14.568Z,5.10
2018-12-25T02:44:44.891Z,7.28
2018-12-25T02:47:15.358Z,5.33
2018-12-25T02:49:50.258Z,5.17
2018-12-25T02:52:17.625Z,5.80
2018-12-25T02:54:47.998Z,5.13
2018-12-25T02:57:18.121Z,6.95
2018-12-25T02:59:48.486Z,6.12
2018-12-25T03:02:18.595Z,8.23
2018-12-25T03:04:48.754Z,6.60
2018-12-25T03:07:18.858Z,7.92
2018-12-25T03:09:49.077Z,6.60
2018-12-25T03:12:19.138Z,5.42
2018-12-25T03:14:49.236Z,4.92
2018-12-25T03:17:19.331Z,4.33
2018-12-25T03:19:49.696Z,6.25
2018-12-25T03:22:19.791Z,9.88
2018-12-25T03:24:49.913Z,4.07
2018-12-25T03:27:20.115Z,4.67
2018-12-25T03:29:50.353Z,6.70
2018-12-25T03:32:20.430Z,6.87
2018-12-25T03:34:50.551Z,6.62
2018-12-25T03:37:20.633Z,5.97
2018-12-25T03:39:51.024Z,7.05
2018-12-25T03:42:21.881Z,6.55
2018-12-25T03:44:52.256Z,5.08
2018-12-25T03:47:22.302Z,4.33
2018-12-25T03:49:52.416Z,6.00
2018-12-25T03:52:22.619Z,4.22
2018-12-25T03:54:53.066Z,7.25
2018-12-25T03:57:23.412Z,4.47
2018-12-25T03:59:53.932Z,4.50
2018-12-25T04:02:24.312Z,5.50
2018-12-25T04:04:54.405Z,4.73
2018-12-25T04:07:24.923Z,4.87
2018-12-25T04:09:55.643Z,3.60
2018-12-25T04:12:25.962Z,6.17
2018-12-25T04:14:56.068Z,3.47
2018-12-25T04:17:26.201Z,4.67
2018-12-25T04:19:57.558Z,4.70
2018-12-25T04:22:27.705Z,4.05
2018-12-25T04:24:57.874Z,4.55
2018-12-25T04:27:28.000Z,3.67
2018-12-25T04:29:58.144Z,3.75
2018-12-25T04:32:28.279Z,3.20
2018-12-25T04:34:58.371Z,3.57
2018-12-25T04:37:28.539Z,6.08
2018-12-25T04:39:58.670Z,3.00
2018-12-25T04:42:28.769Z,3.75
2018-12-25T04:44:59.230Z,3.27
2018-12-25T04:47:29.359Z,3.98
2018-12-25T04:49:59.581Z,3.83
2018-12-25T04:52:29.705Z,5.05
2018-12-25T04:55:00.183Z,3.72
2018-12-25T04:57:30.354Z,4.45
2018-12-25T05:00:00.522Z,4.85
2018-12-25T05:02:30.705Z,6.53
2018-12-25T05:05:01.103Z,6.20
2018-12-25T05:07:31.457Z,5.55
2018-12-25T05:10:01.632Z,4.47
2018-12-25T05:12:32.017Z,4.40
2018-12-25T05:15:02.147Z,4.73
2018-12-25T05:17:32.904Z,4.90
2018-12-25T05:20:03.095Z,8.28
2018-12-25T05:22:33.478Z,5.43
2018-12-25T05:25:03.856Z,8.05
2018-12-25T05:27:34.003Z,4.72
2018-12-25T05:30:04.228Z,5.00
2018-12-25T05:32:34.553Z,4.70
2018-12-25T05:35:05.331Z,6.03
2018-12-25T05:37:35.498Z,4.28
2018-12-25T05:40:05.848Z,5.20
2018-12-25T05:42:36.257Z,4.03
2018-12-25T05:45:06.377Z,4.75
2018-12-25T05:47:37.188Z,4.83
2018-12-25T05:50:07.390Z,4.35
2018-12-25T05:52:37.483Z,4.20
2018-12-25T05:55:08.547Z,4.70
2018-12-25T05:57:38.728Z,5.03
2018-12-25T06:00:09.103Z,4.58
2018-12-25T06:02:39.217Z,5.03
2018-12-25T06:05:10.491Z,4.95
2018-12-25T06:07:40.611Z,4.78
2018-12-25T06:10:10.967Z,5.92
2018-12-25T06:12:41.325Z,4.13
2018-12-25T06:15:11.747Z,4.00
2018-12-25T06:17:41.934Z,4.23
2018-12-25T06:20:12.072Z,4.40
2018-12-25T06:22:42.398Z,5.12
2018-12-25T06:25:12.514Z,5.10
2018-12-25T06:27:42.611Z,5.37
2018-12-25T06:30:13.049Z,5.43
2018-12-25T06:32:43.638Z,3.70
2018-12-25T06:35:14.013Z,3.20
2018-12-25T06:37:44.395Z,3.95
2018-12-25T06:40:14.507Z,5.53
2018-12-25T06:42:44.693Z,3.73
2018-12-25T06:45:15.768Z,4.07
2018-12-25T06:47:46.206Z,3.20
2018-12-25T06:52:38.815Z,3.20
2018-12-25T06:55:09.012Z,3.75
2018-12-25T06:57:39.337Z,3.00
2018-12-25T07:00:09.569Z,3.60
2018-12-25T07:02:39.915Z,5.63
2018-12-25T07:05:10.026Z,3.07
2018-12-25T07:07:40.232Z,3.27
2018-12-25T07:10:10.698Z,4.42
2018-12-25T07:12:41.078Z,5.20
2018-12-25T07:15:11.475Z,4.45
2018-12-25T07:17:41.766Z,4.67
2018-12-25T07:20:11.872Z,3.57
2018-12-25T07:22:42.521Z,5.33
2018-12-25T07:25:12.623Z,3.13
2018-12-25T07:27:43.071Z,3.33
2018-12-25T07:30:13.406Z,4.37
2018-12-25T07:32:43.636Z,4.53
2018-12-25T07:35:13.735Z,3.73
2018-12-25T07:37:44.011Z,3.47
2018-12-25T07:40:14.449Z,5.30
2018-12-25T07:42:44.769Z,4.20
2018-12-25T07:45:14.927Z,5.00
2018-12-25T07:47:45.033Z,5.67
2018-12-25T07:50:15.537Z,5.25
2018-12-25T07:52:45.968Z,4.80
2018-12-25T07:55:16.192Z,5.17
2018-12-25T07:57:46.350Z,5.22
2018-12-25T08:00:16.443Z,4.40
2018-12-25T08:02:46.859Z,4.00
2018-12-25T08:05:16.980Z,6.40
2018-12-25T08:07:47.565Z,6.40
2018-12-25T08:10:17.810Z,4.70
2018-12-25T08:12:48.278Z,6.50
2018-12-25T08:15:18.369Z,5.30
2018-12-25T08:17:48.454Z,7.08
2018-12-25T08:20:18.846Z,4.93
2018-12-25T08:22:49.247Z,5.13
2018-12-25T08:25:19.630Z,4.83
2018-12-25T08:27:50.529Z,5.15
2018-12-25T08:30:20.688Z,4.60
2018-12-25T08:32:50.785Z,4.03
2018-12-25T08:35:21.016Z,4.23
2018-12-25T08:37:51.134Z,3.93
2018-12-25T08:40:21.541Z,4.60
2018-12-25T08:42:51.773Z,5.10
2018-12-25T08:45:21.929Z,4.40
2018-12-25T08:47:52.051Z,5.97
2018-12-25T08:50:22.296Z,6.73
2018-12-25T08:52:52.426Z,6.50
2018-12-25T08:55:22.605Z,5.73
2018-12-25T08:57:54.824Z,5.20
2018-12-25T09:00:24.853Z,6.10
2018-12-25T09:02:55.270Z,6.45
2018-12-25T09:05:25.402Z,6.53
2018-12-25T09:07:55.521Z,5.87
2018-12-25T09:10:25.790Z,4.42
2018-12-25T09:12:56.178Z,5.23
2018-12-25T09:15:26.587Z,4.83
2018-12-25T09:17:56.690Z,5.17
2018-12-25T09:20:26.785Z,5.90
2018-12-25T09:22:56.956Z,4.17
2018-12-25T09:25:27.192Z,4.95
2018-12-25T09:27:57.760Z,5.55
2018-12-25T09:30:27.870Z,5.95
2018-12-25T09:32:57.981Z,4.37
2018-12-25T09:35:28.532Z,4.60
2018-12-25T09:37:59.817Z,9.05
2018-12-25T09:40:29.944Z,7.97
2018-12-25T09:43:00.438Z,7.87
2018-12-25T09:45:30.571Z,9.05
2018-12-25T09:48:00.682Z,5.17
2018-12-25T09:50:30.853Z,5.65
2018-12-25T09:53:01.456Z,5.97
2018-12-25T09:55:32.588Z,5.67
2018-12-25T09:58:02.909Z,4.97
2018-12-25T10:00:33.015Z,3.33
2018-12-25T10:03:03.451Z,4.47
2018-12-25T10:05:33.849Z,3.30
2018-12-25T10:08:04.172Z,3.73
2018-12-25T10:10:34.294Z,3.73
2018-12-25T10:13:04.679Z,6.67
2018-12-25T10:15:34.851Z,3.40
2018-12-25T10:18:05.119Z,4.45
2018-12-25T10:20:35.676Z,4.90
2018-12-25T10:23:06.365Z,3.67
2018-12-25T10:25:36.707Z,3.12
2018-12-25T10:28:07.064Z,3.20
2018-12-25T10:30:37.535Z,3.90
2018-12-25T10:33:07.825Z,5.05
2018-12-25T10:35:38.223Z,6.67
2018-12-25T10:38:08.430Z,3.30
2018-12-25T10:40:38.540Z,5.28
2018-12-25T10:43:09.139Z,4.45
2018-12-25T10:45:39.266Z,4.53
2018-12-25T10:48:09.488Z,3.62
2018-12-25T10:50:41.771Z,4.15
2018-12-25T10:53:11.589Z,4.55
2018-12-25T10:55:41.702Z,4.20
2018-12-25T10:58:12.093Z,5.00
2018-12-25T11:00:46.645Z,4.50
2018-12-25T11:03:16.880Z,5.75
2018-12-25T11:05:47.339Z,4.25
2018-12-25T11:08:17.507Z,5.63
2018-12-25T11:10:47.812Z,4.58
2018-12-25T11:13:17.922Z,8.63
2018-12-25T11:15:48.072Z,6.47
2018-12-25T11:18:18.182Z,4.53
2018-12-25T11:20:48.328Z,4.83
2018-12-25T11:23:19.171Z,5.45
2018-12-25T11:25:49.624Z,5.00
2018-12-25T11:28:19.769Z,4.90
2018-12-25T11:30:50.948Z,4.63
2018-12-25T11:33:21.392Z,6.33
2018-12-25T11:35:51.634Z,4.15
2018-12-25T11:38:22.089Z,3.95
2018-12-25T11:40:52.223Z,4.30
2018-12-25T11:43:22.589Z,5.40
2018-12-25T11:45:52.775Z,4.33
2018-12-25T11:48:23.339Z,4.47
2018-12-25T11:50:53.465Z,5.10
2018-12-25T11:53:24.377Z,5.13
2018-12-25T11:55:54.858Z,4.92
2018-12-25T11:58:25.293Z,5.40
2018-12-25T12:00:55.595Z,5.15
2018-12-25T12:03:25.743Z,6.15
2018-12-25T12:05:57.245Z,5.62
2018-12-25T12:08:27.423Z,4.70
2018-12-25T12:10:57.582Z,5.17
2018-12-25T12:13:27.913Z,4.00
2018-12-25T12:15:58.097Z,5.03
2018-12-25T12:18:28.460Z,4.85
2018-12-25T12:20:58.556Z,4.30
2018-12-25T12:23:28.964Z,3.67
2018-12-25T12:25:59.334Z,5.12
2018-12-25T12:28:29.440Z,4.53
2018-12-25T12:30:59.559Z,4.57
2018-12-25T12:33:29.819Z,4.70
2018-12-25T12:36:00.242Z,4.05
2018-12-25T12:38:30.868Z,4.45
2018-12-25T12:41:01.804Z,3.30
2018-12-25T12:43:32.026Z,3.35
2018-12-25T12:46:02.128Z,4.15
2018-12-25T12:48:32.571Z,4.53
2018-12-25T12:51:03.014Z,5.08
2018-12-25T12:53:33.112Z,5.22
2018-12-25T12:56:03.218Z,3.70
2018-12-25T12:58:33.620Z,4.53
2018-12-25T13:01:03.764Z,4.13
2018-12-25T13:03:34.991Z,5.20
2018-12-25T13:06:05.371Z,4.75
2018-12-25T13:08:35.765Z,4.63
2018-12-25T13:11:05.916Z,7.12
2018-12-25T13:13:36.048Z,5.37
2018-12-25T13:16:06.180Z,5.40
2018-12-25T13:18:36.954Z,5.62
2018-12-25T13:21:07.358Z,5.28
2018-12-25T13:23:37.607Z,5.53
2018-12-25T13:26:08.081Z,4.60
2018-12-25T13:28:38.463Z,3.97
2018-12-25T13:31:08.949Z,4.10
2018-12-25T13:33:39.047Z,4.40
2018-12-25T13:36:09.440Z,4.55
2018-12-25T13:38:39.603Z,4.60
2018-12-25T13:41:10.275Z,4.50
2018-12-25T13:43:40.396Z,3.70
2018-12-25T13:46:10.528Z,3.50
2018-12-25T13:48:40.983Z,3.72
2018-12-25T13:51:11.451Z,3.30
2018-12-25T13:53:41.651Z,3.40
2018-12-25T13:56:11.774Z,3.52
2018-12-25T13:58:42.000Z,4.92
2018-12-25T14:01:12.727Z,4.22
2018-12-25T14:03:42.855Z,5.15
2018-12-25T14:06:13.105Z,3.47
2018-12-25T14:08:43.627Z,6.40
2018-12-25T14:11:14.844Z,5.33
2018-12-25T14:13:45.263Z,4.22
2018-12-25T14:16:15.474Z,4.70
2018-12-25T14:18:46.154Z,6.53
2018-12-25T14:21:16.571Z,3.62
2018-12-25T14:23:46.984Z,4.30
2018-12-25T14:26:18.129Z,4.10
2018-12-25T14:28:48.255Z,4.45
2018-12-25T14:31:19.136Z,4.72
2018-12-25T14:33:50.232Z,4.40
2018-12-25T14:36:20.363Z,4.40
2018-12-25T14:38:50.472Z,4.55
2018-12-25T14:41:20.651Z,4.22
2018-12-25T14:43:51.048Z,3.40
2018-12-25T14:46:21.223Z,4.85
2018-12-25T14:48:51.359Z,4.22
2018-12-25T14:51:21.929Z,3.35
2018-12-25T14:53:52.152Z,5.65
2018-12-25T14:56:22.283Z,4.17
2018-12-25T14:58:52.689Z,4.43
2018-12-25T15:01:25.732Z,6.17
2018-12-25T15:03:55.892Z,14.33
2018-12-25T15:06:26.055Z,7.47
2018-12-25T15:08:56.183Z,7.33
2018-12-25T15:11:26.279Z,4.55
2018-12-25T15:13:56.407Z,5.22
2018-12-25T15:16:26.557Z,3.80
2018-12-25T15:18:56.956Z,24.15
2018-12-25T15:21:27.083Z,21.48
2018-12-25T15:23:57.208Z,33.98
2018-12-25T15:26:27.710Z,16.82
2018-12-25T15:28:57.830Z,27.82
2018-12-25T15:31:27.971Z,15.80
2018-12-25T15:33:58.717Z,31.12
2018-12-25T15:36:29.028Z,31.20
2018-12-25T15:38:59.835Z,13.10
2018-12-25T15:41:29.988Z,6.45
2018-12-25T15:44:00.599Z,5.78
2018-12-25T15:46:31.027Z,13.62
2018-12-25T15:49:01.148Z,9.83
2018-12-25T15:51:31.273Z,7.20
2018-12-25T15:54:01.418Z,5.08
2018-12-25T15:56:31.517Z,4.55
2018-12-25T15:59:01.611Z,3.98
2018-12-25T16:01:32.116Z,6.62
2018-12-25T16:04:02.577Z,8.90
2018-12-25T16:06:33.443Z,4.83
2018-12-25T16:09:04.401Z,8.13
2018-12-25T16:11:35.138Z,4.85
2018-12-25T16:14:05.286Z,6.22
2018-12-25T16:16:35.665Z,5.10
2018-12-25T16:19:05.821Z,7.05
2018-12-25T16:21:35.943Z,8.05
2018-12-25T16:24:06.495Z,8.83
2018-12-25T16:26:36.796Z,65.72
2018-12-25T16:29:07.074Z,56.40
2018-12-25T16:31:37.634Z,20.02
2018-12-25T16:34:08.020Z,6.70
2018-12-25T16:36:38.377Z,7.05
2018-12-25T16:39:10.832Z,8.08
2018-12-25T16:41:41.573Z,6.62
2018-12-25T16:44:11.784Z,7.05
2018-12-25T16:46:41.945Z,8.03
2018-12-25T16:49:12.303Z,7.22
2018-12-25T16:51:42.797Z,7.67
2018-12-25T16:54:13.468Z,9.15
2018-12-25T16:56:43.564Z,8.10
2018-12-25T16:59:14.373Z,7.05
2018-12-25T17:01:44.493Z,7.55
2018-12-25T17:04:15.434Z,8.10
2018-12-25T17:06:45.678Z,7.92
2018-12-25T17:09:15.980Z,9.13
2018-12-25T17:11:46.063Z,8.30
2018-12-25T17:14:16.245Z,9.40
2018-12-25T17:16:46.487Z,7.85
2018-12-25T17:19:17.120Z,7.62
2018-12-25T17:21:47.269Z,10.30
2018-12-25T17:24:18.198Z,6.62
2018-12-25T17:26:48.377Z,7.93
2018-12-25T17:29:18.819Z,14.35
2018-12-25T17:31:49.208Z,20.72
2018-12-25T17:34:19.639Z,41.63
2018-12-25T17:36:50.811Z,42.78
2018-12-25T17:39:21.595Z,29.87
2018-12-25T17:41:52.001Z,16.60
2018-12-25T17:44:22.188Z,10.05
2018-12-25T17:46:52.377Z,11.12
2018-12-25T17:49:22.757Z,7.60
2018-12-25T17:51:52.974Z,8.68
2018-12-25T17:54:23.367Z,7.33
2018-12-25T17:56:53.749Z,8.63
2018-12-25T17:59:24.238Z,7.90
2018-12-25T18:01:54.504Z,8.28
2018-12-25T18:04:24.767Z,8.95
2018-12-25T18:06:55.137Z,9.53
2018-12-25T18:09:25.273Z,10.58
2018-12-25T18:11:55.495Z,11.33
2018-12-25T18:14:25.611Z,7.47
2018-12-25T18:16:55.787Z,8.95
2018-12-25T18:19:25.909Z,8.33
2018-12-25T18:21:56.005Z,10.23
2018-12-25T18:24:26.536Z,11.75
2018-12-25T18:26:56.657Z,11.35
2018-12-25T18:29:26.831Z,10.30
2018-12-25T18:31:57.114Z,10.80
2018-12-25T18:34:27.198Z,10.03
2018-12-25T18:36:58.846Z,8.73
2018-12-25T18:39:30.301Z,11.15
2018-12-25T18:42:01.029Z,17.60
2018-12-25T18:44:32.881Z,17.73
2018-12-25T18:47:03.522Z,13.72
2018-12-25T18:49:33.736Z,38.73
2018-12-25T18:52:04.313Z,33.23
2018-12-25T18:54:34.566Z,17.85
2018-12-25T18:57:04.715Z,25.77
2018-12-25T18:59:34.833Z,18.03
2018-12-25T19:02:06.026Z,23.00
2018-12-25T19:04:36.518Z,10.20
2018-12-25T19:07:06.882Z,8.93
2018-12-25T19:09:37.394Z,11.48
2018-12-25T19:12:07.640Z,9.73
2018-12-25T19:14:49.726Z,9.83
2018-12-25T19:17:20.217Z,10.18
2018-12-25T19:19:50.724Z,8.68
2018-12-25T19:22:22.232Z,9.00
2018-12-25T19:24:52.364Z,8.28
2018-12-25T19:27:22.901Z,10.05
2018-12-25T19:29:53.328Z,9.75
2018-12-25T19:32:23.476Z,8.75
2018-12-25T19:34:56.535Z,8.87
2018-12-25T19:37:28.581Z,8.90
2018-12-25T19:39:58.903Z,13.78
2018-12-25T19:42:29.373Z,10.32
2018-12-25T19:44:59.789Z,11.35
2018-12-25T19:47:30.048Z,10.70
2018-12-25T19:50:00.299Z,10.03
2018-12-25T19:52:30.765Z,8.58
2018-12-25T19:55:00.966Z,8.95
2018-12-25T19:57:31.226Z,9.13
2018-12-25T20:00:01.639Z,8.90
2018-12-25T20:02:32.046Z,9.00
2018-12-25T20:05:38.705Z,9.75
2018-12-25T20:08:41.402Z,11.18
2018-12-25T20:11:46.990Z,15.50
2018-12-25T20:14:57.022Z,93.40
2018-12-25T20:18:14.542Z,80.20
2018-12-25T20:21:08.764Z,43.33
2018-12-25T20:24:19.926Z,35.88
2018-12-25T20:27:36.169Z,14.30
2018-12-25T20:30:51.754Z,13.80
2018-12-25T20:33:39.104Z,10.30
2018-12-25T20:36:49.323Z,9.88
2018-12-25T20:40:06.391Z,8.47
2018-12-25T20:43:28.318Z,11.07
2018-12-25T20:46:35.805Z,10.50
2018-12-25T20:49:38.646Z,11.22
2018-12-25T20:52:48.923Z,9.37
2018-12-25T20:56:18.265Z,9.90
2018-12-25T20:59:32.337Z,9.90
2018-12-25T21:02:55.591Z,9.88
2018-12-25T21:06:08.332Z,8.75
2018-12-25T21:09:27.009Z,10.00
2018-12-25T21:12:43.842Z,9.40
2018-12-25T21:15:39.473Z,8.03
2018-12-25T21:18:58.241Z,9.58
2018-12-25T21:22:09.050Z,8.48
2018-12-25T21:25:15.011Z,9.48
2018-12-25T21:27:43.450Z,12.00
2018-12-25T21:30:13.570Z,8.90
2018-12-25T21:32:44.771Z,9.37
2018-12-25T21:35:25.298Z,10.30
2018-12-25T21:37:57.703Z,11.30
2018-12-25T21:40:28.804Z,9.80
2018-12-25T21:42:59.361Z,7.70
2018-12-25T21:45:30.143Z,9.50
2018-12-25T21:48:00.879Z,9.63
2018-12-25T21:50:31.592Z,8.63
2018-12-25T21:53:02.122Z,9.07
2018-12-25T21:55:32.648Z,8.63
2018-12-25T21:58:03.869Z,7.15
2018-12-25T22:00:35.418Z,7.60
2018-12-25T22:03:05.908Z,8.77
2018-12-25T22:05:36.481Z,7.73
2018-12-25T22:08:06.934Z,9.03
2018-12-25T22:10:37.536Z,8.25
2018-12-25T22:13:07.660Z,7.05
2018-12-25T22:15:37.876Z,8.55
2018-12-25T22:18:09.597Z,9.43
2018-12-25T22:20:40.484Z,8.10
2018-12-25T22:23:10.880Z,8.80
2018-12-25T22:25:41.051Z,7.90
2018-12-25T22:28:11.137Z,6.87
2018-12-25T22:30:41.671Z,8.98
2018-12-25T22:33:11.796Z,9.88
2018-12-25T22:35:42.470Z,7.10
2018-12-25T22:38:12.611Z,9.08
2018-12-25T22:40:42.761Z,6.87
2018-12-25T22:43:13.180Z,7.67
2018-12-25T22:45:43.456Z,7.35
2018-12-25T22:48:13.971Z,10.68
2018-12-25T22:50:44.141Z,8.45
2018-12-25T22:53:15.386Z,9.10
2018-12-25T22:55:45.775Z,8.20
2018-12-25T22:58:15.930Z,8.35
2018-12-25T23:00:46.346Z,9.08
2018-12-25T23:03:23.765Z,7.95
2018-12-25T23:05:54.825Z,8.97
2018-12-25T23:08:24.961Z,7.47
2018-12-25T23:10:55.311Z,7.77
2018-12-25T23:13:25.438Z,8.23
2018-12-25T23:15:55.581Z,8.83
2018-12-25T23:18:25.680Z,8.53
2018-12-25T23:20:55.809Z,7.13
2018-12-25T23:23:25.953Z,8.37
2018-12-25T23:25:56.386Z,7.90
2018-12-25T23:28:26.590Z,12.00
2018-12-25T23:30:57.057Z,9.20
2018-12-25T23:33:27.199Z,8.38
2018-12-25T23:35:57.349Z,8.97
2018-12-25T23:38:27.784Z,9.55
2018-12-25T23:40:57.938Z,10.23
2018-12-25T23:43:28.058Z,9.00
2018-12-25T23:45:58.224Z,7.05
2018-12-25T23:48:28.364Z,8.10
2018-12-25T23:50:58.555Z,9.35
2018-12-25T23:53:28.704Z,7.67
2018-12-25T23:55:58.817Z,7.33
2018-12-25T23:58:28.963Z,8.68
